createdAt,value
2019-01-08T06:58:01.698Z,6.20
2019-01-08T07:00:33.545Z,6.30
2019-01-08T07:03:00.510Z,6.30
2019-01-08T07:05:29.234Z,6.30
2019-01-08T07:07:57.888Z,6.30
2019-01-08T07:10:26.470Z,6.30
2019-01-08T07:12:55.107Z,6.30
2019-01-08T07:15:23.808Z,6.30
2019-01-08T07:17:52.443Z,6.30
2019-01-08T07:20:21.027Z,6.40
2019-01-08T07:22:49.661Z,6.30
2019-01-08T07:25:18.286Z,6.30
2019-01-08T07:27:46.965Z,6.30
2019-01-08T07:30:15.729Z,6.30
2019-01-08T07:32:44.357Z,6.30
2019-01-08T07:35:13.050Z,6.30
2019-01-08T07:37:41.640Z,6.40
2019-01-08T07:40:10.338Z,6.40
2019-01-08T07:42:38.956Z,6.40
2019-01-08T07:45:07.620Z,6.40
2019-01-08T07:47:36.238Z,6.30
2019-01-08T07:50:06.905Z,6.30
2019-01-08T07:52:35.492Z,6.30
2019-01-08T07:55:04.678Z,6.30
2019-01-08T07:57:33.258Z,6.30
2019-01-08T17:20:06.294Z,5.90
2019-01-08T17:22:34.868Z,5.90
2019-01-08T17:25:03.937Z,5.90
2019-01-08T17:27:32.568Z,5.90
2019-01-08T17:30:01.270Z,5.90
2019-01-08T17:32:29.854Z,5.90
2019-01-08T17:34:58.472Z,5.90
2019-01-08T17:37:27.061Z,5.80
2019-01-08T17:39:55.687Z,5.80
2019-01-08T17:42:24.292Z,5.80
2019-01-08T17:44:53.549Z,5.70
2019-01-08T17:47:22.302Z,5.70
2019-01-08T17:49:50.881Z,5.80
2019-01-08T17:52:19.509Z,5.80
2019-01-08T17:54:48.135Z,5.80
2019-01-08T17:57:16.758Z,5.80
2019-01-08T17:59:45.509Z,5.80
2019-01-08T18:02:14.788Z,5.80
2019-01-08T18:04:43.458Z,5.80
2019-01-08T18:07:12.070Z,5.70
2019-01-08T18:09:40.858Z,5.70
2019-01-08T18:12:09.517Z,5.60
2019-01-08T18:14:38.155Z,5.60
2019-01-08T18:17:06.930Z,5.50
2019-01-08T18:19:35.518Z,5.50
2019-01-08T18:22:04.373Z,5.30
2019-01-08T18:24:33.008Z,5.30
2019-01-08T18:27:01.717Z,5.20
2019-01-08T18:29:30.459Z,5.10
2019-01-08T18:31:59.373Z,5.00
2019-01-08T18:34:28.046Z,5.00
2019-01-08T18:36:56.844Z,5.00
2019-01-08T18:39:25.438Z,5.10
2019-01-08T18:41:54.179Z,5.20
2019-01-08T18:44:22.934Z,5.20
2019-01-08T18:46:51.557Z,5.20
2019-01-08T18:49:20.253Z,5.20
2019-01-08T18:51:49.159Z,5.20
2019-01-08T18:54:17.806Z,5.20
2019-01-08T18:56:46.615Z,5.20
2019-01-08T18:59:15.247Z,5.20
2019-01-08T19:01:43.827Z,5.10
2019-01-08T19:04:12.453Z,5.20
2019-01-08T19:06:41.041Z,5.10
2019-01-08T19:09:27.585Z,5.10
2019-01-08T19:11:56.702Z,5.10
2019-01-08T19:14:28.336Z,5.10
2019-01-08T19:16:57.081Z,5.10
2019-01-08T19:19:25.730Z,5.10
2019-01-08T19:21:54.434Z,5.20
2019-01-08T19:24:23.087Z,5.20
2019-01-08T19:26:51.661Z,5.20
2019-01-08T19:29:20.431Z,5.30
2019-01-08T19:31:49.110Z,5.30
2019-01-08T19:34:17.804Z,5.40
2019-01-08T19:36:46.398Z,5.40
2019-01-08T19:39:15.085Z,5.40
2019-01-08T19:41:43.830Z,5.40
2019-01-08T19:44:12.464Z,5.50
2019-01-08T19:47:17.721Z,5.50
2019-01-08T19:52:21.202Z,5.50
2019-01-08T19:54:50.101Z,5.50
2019-01-08T19:57:18.681Z,5.50
2019-01-08T19:59:47.313Z,5.60
2019-01-08T20:02:15.998Z,5.60
2019-01-08T20:04:44.621Z,5.50
2019-01-08T20:07:13.271Z,5.50
2019-01-08T20:09:42.038Z,5.40
2019-01-08T20:12:10.626Z,5.40
2019-01-08T20:14:39.198Z,5.40
2019-01-08T20:17:07.843Z,5.30
2019-01-08T20:19:36.416Z,5.40
2019-01-08T20:22:05.066Z,5.40
2019-01-08T20:24:33.693Z,5.40
2019-01-08T20:27:02.308Z,5.40
2019-01-08T20:29:30.888Z,5.40
2019-01-08T20:31:59.648Z,5.40
2019-01-08T20:34:28.298Z,5.40
2019-01-08T20:36:58.041Z,5.30
2019-01-08T20:39:26.704Z,5.30
2019-01-08T20:41:55.327Z,5.20
2019-01-08T20:44:23.918Z,5.20
2019-01-08T20:46:52.537Z,5.20
2019-01-08T20:49:21.185Z,5.30
2019-01-08T20:51:49.807Z,5.30
2019-01-08T20:54:18.392Z,5.40
2019-01-08T20:56:47.009Z,5.40
2019-01-08T20:59:15.631Z,5.40
2019-01-08T21:01:44.258Z,5.40
2019-01-08T21:04:12.963Z,5.40
2019-01-08T21:06:41.536Z,5.40
2019-01-08T21:09:10.123Z,5.30
2019-01-08T21:11:38.876Z,5.20
2019-01-08T21:14:07.594Z,5.20
2019-01-08T21:16:36.292Z,5.20
2019-01-08T21:19:05.065Z,5.20
2019-01-08T21:21:33.691Z,5.20
2019-01-08T21:24:02.271Z,5.20
2019-01-08T21:26:31.227Z,5.20
2019-01-08T21:28:59.860Z,5.20
2019-01-08T21:31:28.598Z,5.20
2019-01-08T21:33:57.323Z,5.20
2019-01-08T21:36:25.944Z,5.20
2019-01-08T21:38:54.701Z,5.20
2019-01-08T21:41:23.547Z,5.20
2019-01-08T21:43:52.290Z,5.30
2019-01-08T21:46:21.193Z,5.30
2019-01-08T21:48:50.117Z,5.30
2019-01-08T21:51:18.781Z,5.30
2019-01-08T21:53:47.414Z,5.40
2019-01-08T21:56:16.045Z,5.40
2019-01-08T21:58:44.704Z,5.40
2019-01-08T22:01:13.323Z,5.40
2019-01-08T22:03:42.041Z,5.40
2019-01-08T22:06:10.757Z,5.50
2019-01-08T22:08:39.594Z,5.40
2019-01-08T22:11:08.514Z,5.50
2019-01-08T22:13:37.262Z,5.50
2019-01-08T22:16:06.061Z,5.40
2019-01-08T22:18:34.799Z,5.40
2019-01-08T22:21:03.470Z,5.40
2019-01-08T22:23:32.174Z,5.40
2019-01-08T22:26:00.805Z,5.30
2019-01-08T22:28:29.566Z,5.20
2019-01-08T22:30:58.386Z,5.20
2019-01-08T22:33:27.214Z,5.10
2019-01-08T22:35:56.373Z,5.10
2019-01-08T22:38:25.020Z,5.00
2019-01-08T22:40:53.661Z,5.00
2019-01-08T22:43:22.278Z,4.90
2019-01-08T22:45:50.923Z,4.80
2019-01-08T22:48:19.549Z,4.80
2019-01-08T22:50:48.225Z,4.90
2019-01-08T22:53:16.930Z,4.80
2019-01-08T22:55:45.611Z,4.80
2019-01-08T22:58:14.591Z,4.80
2019-01-08T23:00:50.971Z,4.80
2019-01-08T23:03:19.674Z,4.80
2019-01-08T23:05:48.359Z,4.80
2019-01-08T23:08:17.675Z,4.80
2019-01-08T23:10:46.771Z,4.80
2019-01-08T23:13:16.094Z,4.80
2019-01-08T23:15:44.715Z,4.80
2019-01-08T23:18:13.341Z,4.80
2019-01-08T23:20:41.984Z,4.70
2019-01-08T23:23:10.673Z,4.60
2019-01-08T23:25:39.309Z,4.60
2019-01-08T23:28:08.004Z,4.70
2019-01-08T23:30:36.619Z,4.70
2019-01-08T23:33:05.257Z,4.70
2019-01-08T23:35:33.942Z,4.70
2019-01-08T23:38:02.580Z,4.70
2019-01-08T23:40:31.283Z,4.70
2019-01-08T23:43:00.037Z,4.70
2019-01-08T23:45:28.682Z,4.60
2019-01-08T23:47:57.442Z,4.60
2019-01-08T23:50:26.089Z,4.50
2019-01-08T23:53:03.615Z,4.40
2019-01-08T23:55:33.437Z,4.30
2019-01-08T23:58:03.197Z,4.30
